createdAt,value
2022-07-28T00:00:00.281Z,1
2022-07-28T00:01:06.469Z,1
2022-07-28T00:02:01.315Z,1
2022-07-28T00:03:01.217Z,1
2022-07-28T00:04:00.973Z,1
2022-07-28T00:05:00.748Z,1
2022-07-28T00:06:09.700Z,1
2022-07-28T00:07:00.891Z,1
2022-07-28T00:08:00.882Z,1
2022-07-28T00:09:00.519Z,1
2022-07-28T00:10:01.289Z,1
2022-07-28T00:11:10.542Z,1
2022-07-28T00:12:00.555Z,1
2022-07-28T00:13:00.216Z,1
2022-07-28T00:13:59.962Z,1
2022-07-28T00:14:59.705Z,1
2022-07-28T00:16:13.683Z,1
2022-07-28T00:17:01.173Z,1
2022-07-28T00:18:00.868Z,1
2022-07-28T00:19:01.098Z,1
2022-07-28T00:20:00.508Z,1
2022-07-28T00:21:00.175Z,1
2022-07-28T00:21:59.865Z,1
2022-07-28T00:22:59.583Z,1
2022-07-28T00:24:01.401Z,1
2022-07-28T00:25:01.190Z,1
2022-07-28T00:26:00.921Z,1
2022-07-28T00:27:00.603Z,1
2022-07-28T00:28:00.254Z,1
2022-07-28T00:29:00.022Z,1
2022-07-28T00:29:59.702Z,1
2022-07-28T00:31:06.150Z,1
2022-07-28T00:32:02.371Z,1
2022-07-28T00:33:00.583Z,1
2022-07-28T00:34:00.241Z,1
2022-07-28T00:34:59.852Z,1
2022-07-28T00:35:59.756Z,1
2022-07-28T00:37:02.435Z,1
2022-07-28T00:38:01.138Z,1
2022-07-28T00:39:00.993Z,1
2022-07-28T00:40:01.141Z,1
2022-07-28T00:41:01.189Z,1
2022-07-28T00:42:00.853Z,1
2022-07-28T00:43:01.534Z,1
2022-07-28T00:44:00.682Z,1
2022-07-28T00:45:01.315Z,1
2022-07-28T00:46:00.987Z,1
2022-07-28T00:47:00.668Z,1
2022-07-28T00:48:00.340Z,1
2022-07-28T00:49:00.185Z,1
2022-07-28T00:49:59.882Z,1
2022-07-28T00:50:59.547Z,1
2022-07-28T00:52:02.224Z,1
2022-07-28T00:53:01.637Z,1
2022-07-28T00:54:03.032Z,1
2022-07-28T00:55:01.319Z,1
2022-07-28T00:56:04.084Z,1
2022-07-28T00:57:01.326Z,1
2022-07-28T00:58:00.618Z,1
2022-07-28T00:59:00.833Z,1
2022-07-28T01:00:00.529Z,1
2022-07-28T01:01:00.132Z,1
2022-07-28T01:01:59.987Z,1
2022-07-28T01:02:59.927Z,1
2022-07-28T01:04:01.045Z,1
2022-07-28T01:05:00.755Z,1
2022-07-28T01:06:00.402Z,1
2022-07-28T01:07:00.037Z,1
2022-07-28T01:07:59.863Z,1
2022-07-28T01:08:59.578Z,1
2022-07-28T01:10:01.243Z,1
2022-07-28T01:11:01.118Z,1
2022-07-28T01:12:01.713Z,1
2022-07-28T01:13:00.973Z,1
2022-07-28T01:14:00.941Z,1
2022-07-28T01:15:00.959Z,1
2022-07-28T01:16:00.931Z,1
2022-07-28T01:17:01.216Z,1
2022-07-28T01:18:00.966Z,1
2022-07-28T01:19:01.101Z,1
2022-07-28T01:20:00.711Z,1
2022-07-28T01:21:00.566Z,1
2022-07-28T01:22:00.881Z,1
2022-07-28T01:23:00.630Z,1
2022-07-28T01:24:00.376Z,1
2022-07-28T01:25:00.091Z,1
2022-07-28T01:25:59.785Z,1
2022-07-28T01:27:02.235Z,1
2022-07-28T01:28:02.012Z,1
2022-07-28T01:29:01.009Z,1
2022-07-28T01:30:01.862Z,1
2022-07-28T01:31:00.768Z,1
2022-07-28T01:32:00.516Z,1
2022-07-28T01:33:00.172Z,1
2022-07-28T01:34:00.315Z,1
2022-07-28T01:35:00.163Z,1
2022-07-28T01:35:59.952Z,1
2022-07-28T01:36:59.636Z,1
2022-07-28T01:38:01.377Z,1
2022-07-28T01:39:01.084Z,1
2022-07-28T01:40:00.877Z,1
2022-07-28T01:41:00.717Z,1
2022-07-28T01:42:00.589Z,1
2022-07-28T01:43:00.220Z,1
2022-07-28T01:43:59.860Z,1
2022-07-28T01:45:02.646Z,1
2022-07-28T01:46:00.999Z,1
2022-07-28T01:47:00.729Z,1
2022-07-28T01:48:00.426Z,1
2022-07-28T01:49:00.212Z,1
2022-07-28T01:49:59.922Z,1
2022-07-28T01:50:59.730Z,1
2022-07-28T01:52:01.466Z,1
2022-07-28T01:53:01.527Z,1
2022-07-28T01:54:02.410Z,1
2022-07-28T01:55:01.290Z,1
2022-07-28T01:56:00.993Z,1
2022-07-28T01:57:00.687Z,1
2022-07-28T01:58:00.498Z,1
2022-07-28T01:59:00.194Z,1
2022-07-28T01:59:59.840Z,1
2022-07-28T02:01:01.653Z,1
2022-07-28T02:02:00.961Z,1
2022-07-28T02:03:00.724Z,1
2022-07-28T02:04:00.366Z,1
2022-07-28T02:05:00.213Z,1
2022-07-28T02:06:00.057Z,1
2022-07-28T02:07:04.418Z,1
2022-07-28T02:08:00.875Z,1
2022-07-28T02:09:00.569Z,1
2022-07-28T02:10:00.342Z,1
2022-07-28T02:11:00.109Z,1
2022-07-28T02:12:05.267Z,1
2022-07-28T02:13:01.131Z,1
2022-07-28T02:14:00.898Z,1
2022-07-28T02:15:00.606Z,1
2022-07-28T02:16:00.334Z,1
2022-07-28T02:17:06.704Z,1
2022-07-28T02:18:01.216Z,1
2022-07-28T02:19:00.935Z,1
2022-07-28T02:20:00.642Z,1
2022-07-28T02:21:00.346Z,1.1
2022-07-28T02:22:09.887Z,1.1
2022-07-28T02:23:01.065Z,1.2
2022-07-28T02:24:00.559Z,1.4
2022-07-28T02:25:00.285Z,1.4
2022-07-28T02:26:00.664Z,1.5
2022-07-28T02:27:12.340Z,1.8
2022-07-28T02:28:01.403Z,1.7
2022-07-28T02:29:01.013Z,1.7
2022-07-28T02:30:00.777Z,1.7
2022-07-28T02:31:00.617Z,1.8
2022-07-28T02:32:00.314Z,2.1
2022-07-28T02:33:02.325Z,2.2
2022-07-28T02:34:02.196Z,2.2
2022-07-28T02:35:02.177Z,2.2
2022-07-28T02:36:01.160Z,2
2022-07-28T02:37:00.850Z,2.2
2022-07-28T02:38:01.103Z,2
2022-07-28T02:39:01.305Z,1.9
2022-07-28T02:40:01.025Z,1.9
2022-07-28T02:41:00.899Z,1.9
2022-07-28T02:42:00.578Z,2
2022-07-28T02:43:00.426Z,2
2022-07-28T02:44:00.201Z,2
2022-07-28T02:44:59.883Z,1.7
2022-07-28T02:45:59.641Z,1.9
2022-07-28T02:47:02.694Z,1.7
2022-07-28T02:48:03.073Z,1.7
2022-07-28T02:49:02.653Z,1.9
2022-07-28T02:50:01.618Z,1.6
2022-07-28T02:51:01.503Z,1.7
2022-07-28T02:52:01.042Z,1.6
2022-07-28T02:53:00.966Z,1.5
2022-07-28T02:54:00.964Z,1.4
2022-07-28T02:55:00.631Z,1.6
2022-07-28T02:56:00.266Z,1.6
2022-07-28T02:56:59.909Z,1.6
2022-07-28T02:57:59.872Z,1.5
2022-07-28T02:58:59.880Z,1.7
2022-07-28T02:59:59.565Z,1.9
2022-07-28T03:01:02.847Z,1.9
2022-07-28T03:02:03.468Z,1.8
2022-07-28T03:03:00.711Z,1.6
2022-07-28T03:04:00.338Z,1.8
2022-07-28T03:05:00.072Z,1.5
2022-07-28T03:05:59.920Z,1.8
2022-07-28T03:06:59.566Z,1.8
2022-07-28T03:08:01.410Z,2
2022-07-28T03:09:01.169Z,2
2022-07-28T03:10:02.323Z,2
2022-07-28T03:11:00.990Z,2.2
2022-07-28T03:12:00.597Z,2.1
2022-07-28T03:13:00.495Z,2.1
2022-07-28T03:14:00.164Z,2.2
2022-07-28T03:15:02.245Z,2.1
2022-07-28T03:16:01.453Z,2.2
2022-07-28T03:17:01.156Z,2.1
2022-07-28T03:18:01.152Z,2.3
2022-07-28T03:19:00.915Z,2.5
2022-07-28T03:20:00.560Z,2.5
2022-07-28T03:21:00.236Z,2.2
2022-07-28T03:22:00.131Z,2.3
2022-07-28T03:22:59.818Z,2.2
2022-07-28T03:24:02.223Z,2.6
2022-07-28T03:25:02.443Z,2.7
2022-07-28T03:26:00.860Z,2.6
2022-07-28T03:27:00.575Z,2.7
2022-07-28T03:28:00.231Z,2.8
2022-07-28T03:28:59.967Z,2.7
2022-07-28T03:30:03.574Z,2.7
2022-07-28T03:31:00.923Z,2.9
2022-07-28T03:32:00.622Z,2.8
2022-07-28T03:33:00.425Z,2.8
2022-07-28T03:34:00.048Z,2.7
2022-07-28T03:35:00.724Z,2.5
2022-07-28T03:36:00.437Z,2.8
2022-07-28T03:37:00.111Z,2.9
2022-07-28T03:37:59.810Z,2.9
2022-07-28T03:39:01.565Z,2.9
2022-07-28T03:40:02.495Z,2.9
2022-07-28T03:41:02.155Z,2.8
2022-07-28T03:42:00.623Z,2.8
2022-07-28T03:43:00.278Z,3.1
2022-07-28T03:43:59.917Z,2.9
2022-07-28T03:44:59.572Z,3.2
2022-07-28T03:46:02.730Z,3
2022-07-28T03:47:00.912Z,3.2
2022-07-28T03:48:00.603Z,3.3
2022-07-28T03:49:00.385Z,3.3
2022-07-28T03:50:00.102Z,3.5
2022-07-28T03:51:00.626Z,3.5
2022-07-28T03:52:00.344Z,3.3
2022-07-28T03:53:00.021Z,3.2
2022-07-28T03:53:59.718Z,3.1
2022-07-28T03:55:02.310Z,3.2
2022-07-28T03:56:01.905Z,3.1
2022-07-28T03:57:01.743Z,3.1
2022-07-28T03:58:00.644Z,3
2022-07-28T03:59:00.370Z,3.1
2022-07-28T04:00:00.137Z,3.1
2022-07-28T04:01:00.242Z,3.2
2022-07-28T04:02:00.228Z,3
2022-07-28T04:02:59.992Z,3.1
2022-07-28T04:03:59.711Z,3
2022-07-28T04:05:02.843Z,3
2022-07-28T04:06:00.772Z,3.1
2022-07-28T04:07:00.817Z,3
2022-07-28T04:08:01.557Z,3.1
2022-07-28T04:09:02.215Z,2.8
2022-07-28T04:10:01.592Z,2.8
2022-07-28T04:11:01.836Z,2.7
2022-07-28T04:12:00.664Z,2.7
2022-07-28T04:13:01.590Z,2.8
2022-07-28T04:14:00.562Z,2.4
2022-07-28T04:15:00.282Z,2.3
2022-07-28T04:16:00.059Z,2.2
2022-07-28T04:16:59.889Z,1.9
2022-07-28T04:18:06.547Z,1.9
2022-07-28T04:19:00.677Z,1.9
2022-07-28T04:20:00.406Z,1.5
2022-07-28T04:21:00.102Z,1.5
2022-07-28T04:21:59.801Z,1.3
2022-07-28T04:23:10.866Z,1.4
2022-07-28T04:24:02.966Z,1.4
2022-07-28T04:25:01.569Z,1.5
2022-07-28T04:26:01.629Z,1.4
2022-07-28T04:27:00.971Z,1.4
2022-07-28T04:28:14.949Z,1.4
2022-07-28T04:29:03.345Z,1.4
2022-07-28T04:30:00.887Z,1.2
2022-07-28T04:31:00.795Z,1.1
2022-07-28T04:32:00.580Z,1
2022-07-28T04:33:00.291Z,1
2022-07-28T04:34:00.024Z,1
2022-07-28T04:34:59.798Z,1
2022-07-28T04:36:02.572Z,1
2022-07-28T04:37:00.748Z,1
2022-07-28T04:38:00.448Z,1
2022-07-28T04:39:00.097Z,1
2022-07-28T04:40:00.211Z,1
2022-07-28T04:41:00.027Z,1
2022-07-28T04:42:00.785Z,1
2022-07-28T04:43:00.558Z,1
2022-07-28T04:44:00.249Z,1
2022-07-28T04:45:00.055Z,1
2022-07-28T04:46:00.654Z,1
2022-07-28T04:47:00.395Z,1
2022-07-28T04:48:00.033Z,1
2022-07-28T04:48:59.907Z,1
2022-07-28T04:49:59.638Z,1
2022-07-28T04:51:01.431Z,1
2022-07-28T04:52:01.160Z,1
2022-07-28T04:53:00.835Z,1
2022-07-28T04:54:00.691Z,1
2022-07-28T04:55:00.462Z,1
2022-07-28T04:56:00.228Z,1
2022-07-28T04:57:00.623Z,1
2022-07-28T04:58:01.155Z,1
2022-07-28T04:59:00.852Z,1
2022-07-28T05:00:00.866Z,1
2022-07-28T05:01:00.821Z,1
2022-07-28T05:02:00.558Z,1
2022-07-28T05:03:00.315Z,1
2022-07-28T05:04:00.702Z,1
2022-07-28T05:05:00.466Z,1
2022-07-28T05:06:00.303Z,1
2022-07-28T05:06:59.882Z,1
2022-07-28T05:07:59.585Z,1
2022-07-28T05:09:01.257Z,1
2022-07-28T05:10:01.032Z,1
2022-07-28T05:11:00.689Z,1.3
2022-07-28T05:12:00.460Z,1.2
2022-07-28T05:13:00.153Z,1
2022-07-28T05:13:59.812Z,1
2022-07-28T05:15:02.846Z,1
2022-07-28T05:16:01.512Z,1
2022-07-28T05:17:00.996Z,1
2022-07-28T05:18:00.940Z,1
2022-07-28T05:19:00.715Z,1
2022-07-28T05:20:00.505Z,1
2022-07-28T05:21:01.426Z,1
2022-07-28T05:22:00.626Z,1
2022-07-28T05:23:00.249Z,1
2022-07-28T05:23:59.902Z,1.1
2022-07-28T05:24:59.594Z,1.1
2022-07-28T05:26:02.396Z,1
2022-07-28T05:27:01.037Z,1
2022-07-28T05:28:00.683Z,1
2022-07-28T05:29:00.685Z,1
2022-07-28T05:30:00.870Z,1
2022-07-28T05:31:00.896Z,1
2022-07-28T05:32:03.955Z,1
2022-07-28T05:33:02.421Z,1
2022-07-28T05:34:00.686Z,1
2022-07-28T05:35:00.427Z,1
2022-07-28T05:36:00.183Z,1
2022-07-28T05:36:59.915Z,1
2022-07-28T05:38:00.044Z,1
2022-07-28T05:38:59.796Z,1
2022-07-28T05:40:02.871Z,1
2022-07-28T05:41:00.929Z,1
2022-07-28T05:42:00.616Z,1
2022-07-28T05:43:00.301Z,1
2022-07-28T05:43:59.942Z,1
2022-07-28T05:44:59.588Z,1
2022-07-28T05:46:01.486Z,1
2022-07-28T05:47:00.882Z,1
2022-07-28T05:48:00.818Z,1
2022-07-28T05:49:00.538Z,1
2022-07-28T05:50:00.817Z,1
2022-07-28T05:51:00.494Z,1
2022-07-28T05:52:00.119Z,1
2022-07-28T05:52:59.840Z,1
2022-07-28T05:54:01.843Z,1
2022-07-28T05:55:03.150Z,1
2022-07-28T05:56:02.121Z,1
2022-07-28T05:57:00.940Z,1
2022-07-28T05:58:00.563Z,1
2022-07-28T05:59:04.613Z,1
2022-07-28T06:00:02.557Z,1
2022-07-28T06:01:02.494Z,1
2022-07-28T06:02:01.668Z,1
2022-07-28T06:03:01.008Z,1
2022-07-28T06:04:27.852Z,1
2022-07-28T06:05:00.774Z,1
2022-07-28T06:06:14.568Z,1
2022-07-28T06:07:01.619Z,1
2022-07-28T06:08:01.235Z,1
2022-07-28T06:09:06.650Z,1
2022-07-28T06:10:02.160Z,1
2022-07-28T06:11:02.566Z,1
2022-07-28T06:12:01.458Z,1
2022-07-28T06:13:01.364Z,1
2022-07-28T06:14:10.414Z,1
2022-07-28T06:15:01.187Z,1
2022-07-28T06:16:01.294Z,1
2022-07-28T06:17:00.705Z,1
2022-07-28T06:18:00.881Z,1
2022-07-28T06:19:11.345Z,1
2022-07-28T06:20:00.542Z,1
2022-07-28T06:21:00.326Z,1
2022-07-28T06:22:00.195Z,1
2022-07-28T06:22:59.885Z,1
2022-07-28T06:24:13.560Z,1
2022-07-28T06:25:00.622Z,1
2022-07-28T06:26:00.269Z,1
2022-07-28T06:26:59.897Z,1
2022-07-28T06:27:59.613Z,1
2022-07-28T06:29:17.337Z,1
2022-07-28T06:30:03.001Z,1
2022-07-28T06:31:01.383Z,1
2022-07-28T06:32:01.222Z,1
2022-07-28T06:33:00.977Z,1
2022-07-28T06:34:00.660Z,1
2022-07-28T06:35:00.397Z,1
2022-07-28T06:36:00.100Z,1
2022-07-28T06:36:59.774Z,1
2022-07-28T06:38:01.652Z,1
2022-07-28T06:39:01.527Z,1
2022-07-28T06:40:01.081Z,1
2022-07-28T06:41:00.823Z,1
2022-07-28T06:42:00.720Z,1
2022-07-28T06:43:00.460Z,1
2022-07-28T06:44:00.312Z,1
2022-07-28T06:45:01.198Z,1
2022-07-28T06:46:00.970Z,1
2022-07-28T06:47:01.013Z,1
2022-07-28T06:48:00.755Z,1
2022-07-28T06:49:00.569Z,1
2022-07-28T06:50:01.222Z,1
2022-07-28T06:51:01.006Z,1
2022-07-28T06:52:00.678Z,1
2022-07-28T06:53:00.338Z,1
2022-07-28T06:54:00.099Z,1
2022-07-28T06:54:59.795Z,1
2022-07-28T06:56:01.693Z,1
2022-07-28T06:57:01.067Z,1
2022-07-28T06:58:00.724Z,1
2022-07-28T06:59:00.790Z,1
2022-07-28T07:00:00.586Z,1
2022-07-28T07:01:00.926Z,1
2022-07-28T07:02:00.958Z,1
2022-07-28T07:03:01.320Z,1
2022-07-28T07:04:00.733Z,1
2022-07-28T07:05:00.585Z,1
2022-07-28T07:06:00.269Z,1
2022-07-28T07:06:59.971Z,1
2022-07-28T07:07:59.992Z,1
2022-07-28T07:08:59.950Z,1
2022-07-28T07:09:59.837Z,1
2022-07-28T07:11:02.987Z,1
2022-07-28T07:12:00.645Z,1
2022-07-28T07:13:00.621Z,1
2022-07-28T07:14:02.587Z,1
2022-07-28T07:15:01.318Z,1
2022-07-28T07:16:01.082Z,1
2022-07-28T07:17:00.937Z,1
2022-07-28T07:18:00.696Z,1
2022-07-28T07:19:00.538Z,1
2022-07-28T07:20:02.298Z,1
2022-07-28T07:21:00.869Z,1
2022-07-28T07:22:00.580Z,1
2022-07-28T07:23:00.238Z,1
2022-07-28T07:24:00.091Z,1
2022-07-28T07:24:59.837Z,1
2022-07-28T07:26:02.466Z,1
2022-07-28T07:27:02.489Z,1
2022-07-28T07:28:01.187Z,1
2022-07-28T07:29:01.006Z,1
2022-07-28T07:30:00.693Z,1
2022-07-28T07:31:00.479Z,1
2022-07-28T07:32:00.326Z,1
2022-07-28T07:33:00.032Z,1
2022-07-28T07:33:59.701Z,1
2022-07-28T07:35:01.648Z,1
2022-07-28T07:36:01.399Z,1
2022-07-28T07:37:00.786Z,1
2022-07-28T07:38:00.464Z,1
2022-07-28T07:39:00.132Z,1
2022-07-28T07:39:59.867Z,1
2022-07-28T07:40:59.573Z,1
2022-07-28T07:42:02.181Z,1
2022-07-28T07:43:01.496Z,1
2022-07-28T07:44:00.957Z,1
2022-07-28T07:45:00.734Z,1
2022-07-28T07:46:00.433Z,1
2022-07-28T07:47:00.330Z,1
2022-07-28T07:48:00.137Z,1
2022-07-28T07:48:59.936Z,1
2022-07-28T07:50:04.994Z,1
2022-07-28T07:51:00.889Z,1
2022-07-28T07:52:00.703Z,1
2022-07-28T07:53:00.345Z,1
2022-07-28T07:54:00.064Z,1
2022-07-28T07:55:07.925Z,1
2022-07-28T07:56:00.775Z,1
2022-07-28T07:57:00.507Z,1
2022-07-28T07:58:00.196Z,1
2022-07-28T07:59:00.146Z,1
2022-07-28T08:00:28.081Z,1
2022-07-28T08:01:01.022Z,1
2022-07-28T08:02:00.923Z,1
2022-07-28T08:03:00.729Z,1
2022-07-28T08:04:00.696Z,1
2022-07-28T08:05:16.390Z,1
2022-07-28T08:06:01.113Z,1
2022-07-28T08:07:00.876Z,1
2022-07-28T08:08:00.593Z,1
2022-07-28T08:09:00.285Z,1
2022-07-28T08:09:59.955Z,1
2022-07-28T08:10:59.665Z,1
2022-07-28T08:12:02.192Z,1
2022-07-28T08:13:00.634Z,1
2022-07-28T08:14:00.400Z,1
2022-07-28T08:15:00.124Z,1
2022-07-28T08:16:00.662Z,1
2022-07-28T08:17:00.410Z,1
2022-07-28T08:18:00.409Z,1
2022-07-28T08:19:00.049Z,1
2022-07-28T08:19:59.827Z,1
2022-07-28T08:21:01.863Z,1
2022-07-28T08:22:00.872Z,1
2022-07-28T08:23:00.648Z,1
2022-07-28T08:24:00.527Z,1
2022-07-28T08:25:00.209Z,1
2022-07-28T08:25:59.931Z,1
2022-07-28T08:26:59.673Z,1
2022-07-28T08:28:02.256Z,1
2022-07-28T08:29:02.257Z,1
2022-07-28T08:30:00.607Z,1
2022-07-28T08:31:00.531Z,1
2022-07-28T08:32:00.198Z,1
2022-07-28T08:32:59.911Z,1
2022-07-28T08:33:59.608Z,1
2022-07-28T08:35:30.454Z,1
2022-07-28T08:36:01.628Z,1
2022-07-28T08:37:00.883Z,1
2022-07-28T08:38:00.775Z,1
2022-07-28T08:39:00.509Z,1
2022-07-28T08:40:00.176Z,1
2022-07-28T08:40:59.841Z,1
2022-07-28T08:42:01.606Z,1
2022-07-28T08:43:01.566Z,1
2022-07-28T08:44:02.630Z,1
2022-07-28T08:45:02.269Z,1
2022-07-28T08:46:02.906Z,1
2022-07-28T08:47:01.206Z,1
2022-07-28T08:48:09.794Z,1
2022-07-28T08:49:01.079Z,1
2022-07-28T08:50:00.817Z,1
2022-07-28T08:51:00.538Z,1
2022-07-28T08:52:00.277Z,1
2022-07-28T08:52:59.893Z,1
2022-07-28T08:53:59.638Z,1
2022-07-28T08:55:01.292Z,1
2022-07-28T08:56:00.985Z,1
2022-07-28T08:57:00.766Z,1
2022-07-28T08:58:00.698Z,1
2022-07-28T08:59:00.603Z,1
2022-07-28T09:00:00.875Z,1
2022-07-28T09:01:01.678Z,1
2022-07-28T09:02:00.934Z,1
2022-07-28T09:03:00.891Z,1
2022-07-28T09:04:00.621Z,1
2022-07-28T09:05:00.697Z,1
2022-07-28T09:06:00.376Z,1
2022-07-28T09:07:00.046Z,1
2022-07-28T09:07:59.692Z,1
2022-07-28T09:09:02.138Z,1
2022-07-28T09:10:00.670Z,1
2022-07-28T09:11:00.880Z,1
2022-07-28T09:12:00.667Z,1
2022-07-28T09:13:00.400Z,1
2022-07-28T09:14:00.113Z,1
2022-07-28T09:14:59.986Z,1
2022-07-28T09:15:59.796Z,1
2022-07-28T09:17:02.107Z,1
2022-07-28T09:18:01.043Z,1
2022-07-28T09:19:00.768Z,1
2022-07-28T09:20:00.555Z,1
2022-07-28T09:21:00.348Z,1
2022-07-28T09:22:00.283Z,1
2022-07-28T09:23:00.050Z,1
2022-07-28T09:23:59.766Z,1
2022-07-28T09:25:01.450Z,1
2022-07-28T09:26:01.498Z,1
2022-07-28T09:27:02.269Z,1
2022-07-28T09:28:01.313Z,1
2022-07-28T09:29:01.106Z,1
2022-07-28T09:30:00.805Z,1
2022-07-28T09:31:03.786Z,1
2022-07-28T09:32:03.016Z,1
2022-07-28T09:33:02.631Z,1
2022-07-28T09:34:01.512Z,1
2022-07-28T09:35:01.187Z,1
2022-07-28T09:36:04.008Z,1
2022-07-28T09:37:01.076Z,1
2022-07-28T09:38:00.765Z,1
2022-07-28T09:39:00.458Z,1
2022-07-28T09:40:03.805Z,1
2022-07-28T09:41:04.329Z,1
2022-07-28T09:42:02.346Z,1
2022-07-28T09:43:01.010Z,1
2022-07-28T09:44:00.873Z,1
2022-07-28T09:45:21.928Z,1
2022-07-28T09:46:06.742Z,1
2022-07-28T09:47:02.614Z,1
2022-07-28T09:48:03.073Z,1
2022-07-28T09:49:02.847Z,1
2022-07-28T09:50:00.815Z,1
2022-07-28T09:51:08.485Z,1
2022-07-28T09:52:00.829Z,1
2022-07-28T09:53:01.566Z,1
2022-07-28T09:54:00.748Z,1
2022-07-28T09:55:00.396Z,1
2022-07-28T09:56:11.921Z,1
2022-07-28T09:57:00.898Z,1
2022-07-28T09:58:00.647Z,1
2022-07-28T09:59:00.585Z,1
2022-07-28T10:00:02.299Z,1
2022-07-28T10:01:13.841Z,1
2022-07-28T10:02:02.450Z,1
2022-07-28T10:03:00.712Z,1
2022-07-28T10:04:02.687Z,1
2022-07-28T10:05:02.762Z,1
2022-07-28T10:06:00.726Z,1
2022-07-28T10:07:00.435Z,1
2022-07-28T10:08:00.604Z,1
2022-07-28T10:09:00.261Z,1
2022-07-28T10:09:59.943Z,1
2022-07-28T10:10:59.740Z,1
2022-07-28T10:12:02.250Z,1
2022-07-28T10:13:01.382Z,1
2022-07-28T10:14:00.787Z,1
2022-07-28T10:15:00.746Z,1
2022-07-28T10:16:00.443Z,1
2022-07-28T10:17:05.652Z,1
2022-07-28T10:18:01.433Z,1
2022-07-28T10:19:00.795Z,1
2022-07-28T10:20:00.520Z,1
2022-07-28T10:21:00.248Z,1
2022-07-28T10:21:59.863Z,1
2022-07-28T10:22:59.622Z,1
2022-07-28T10:24:01.392Z,1
2022-07-28T10:25:01.289Z,1
2022-07-28T10:26:01.298Z,1
2022-07-28T10:27:00.971Z,1
2022-07-28T10:28:00.618Z,1
2022-07-28T10:29:00.273Z,1
2022-07-28T10:29:59.977Z,1
2022-07-28T10:30:59.807Z,1
2022-07-28T10:32:02.145Z,1
2022-07-28T10:33:00.724Z,1
2022-07-28T10:34:00.363Z,1
2022-07-28T10:35:00.116Z,1
2022-07-28T10:35:59.786Z,1
2022-07-28T10:37:03.365Z,1
2022-07-28T10:38:00.746Z,1
2022-07-28T10:39:00.715Z,1
2022-07-28T10:40:00.753Z,1
2022-07-28T10:41:00.398Z,1
2022-07-28T10:42:00.095Z,1
2022-07-28T10:42:59.973Z,1
2022-07-28T10:43:59.981Z,1
2022-07-28T10:44:59.775Z,1
2022-07-28T10:46:05.986Z,1
2022-07-28T10:47:00.859Z,1
2022-07-28T10:48:00.629Z,1
2022-07-28T10:49:00.429Z,1
2022-07-28T10:50:01.534Z,1
2022-07-28T10:51:01.185Z,1
2022-07-28T10:52:06.534Z,1
2022-07-28T10:53:00.958Z,1
2022-07-28T10:54:00.740Z,1
2022-07-28T10:55:00.740Z,1
2022-07-28T10:56:01.664Z,1
2022-07-28T10:57:00.617Z,1
2022-07-28T10:58:02.133Z,1
2022-07-28T10:59:04.652Z,1
2022-07-28T11:00:12.909Z,1
2022-07-28T11:01:05.920Z,1
2022-07-28T11:02:02.007Z,1
2022-07-28T11:03:00.992Z,1
2022-07-28T11:04:00.944Z,1
2022-07-28T11:05:01.636Z,1
2022-07-28T11:06:01.038Z,1
2022-07-28T11:07:00.723Z,1
2022-07-28T11:08:00.436Z,1
2022-07-28T11:09:00.136Z,1
2022-07-28T11:09:59.869Z,1
2022-07-28T11:11:09.215Z,1
2022-07-28T11:12:01.762Z,1
2022-07-28T11:13:01.402Z,1
2022-07-28T11:14:00.667Z,1
2022-07-28T11:15:00.461Z,1
2022-07-28T11:16:01.393Z,1
2022-07-28T11:17:10.247Z,1
2022-07-28T11:18:01.421Z,1
2022-07-28T11:19:00.843Z,1
2022-07-28T11:20:25.137Z,1
2022-07-28T11:21:02.270Z,1
2022-07-28T11:22:07.742Z,1
2022-07-28T11:23:00.934Z,1
2022-07-28T11:24:00.863Z,1
2022-07-28T11:25:00.808Z,1
2022-07-28T11:26:00.871Z,1
2022-07-28T11:27:09.805Z,1
2022-07-28T11:28:00.682Z,1
2022-07-28T11:29:00.471Z,1
2022-07-28T11:30:00.184Z,1
2022-07-28T11:31:00.048Z,1
2022-07-28T11:32:12.346Z,1
2022-07-28T11:33:00.690Z,1
2022-07-28T11:34:00.631Z,1
2022-07-28T11:35:00.525Z,1
2022-07-28T11:36:00.219Z,1
2022-07-28T11:37:15.381Z,1
2022-07-28T11:38:01.529Z,1
2022-07-28T11:39:02.857Z,1
2022-07-28T11:40:02.405Z,1
2022-07-28T11:41:02.236Z,1
2022-07-28T11:42:15.032Z,1
2022-07-28T11:43:00.973Z,1
2022-07-28T11:44:00.787Z,1
2022-07-28T11:45:00.567Z,1
2022-07-28T11:46:00.937Z,1
2022-07-28T11:47:16.131Z,1
2022-07-28T11:48:00.589Z,1
2022-07-28T11:49:00.405Z,1
2022-07-28T11:50:00.209Z,1
2022-07-28T11:50:59.993Z,1
2022-07-28T11:51:59.693Z,1
2022-07-28T11:53:00.909Z,1
2022-07-28T11:54:00.564Z,1
2022-07-28T11:55:00.602Z,1
2022-07-28T11:56:02.785Z,1
2022-07-28T11:57:01.180Z,1
2022-07-28T11:58:00.738Z,1
2022-07-28T11:59:00.491Z,1
2022-07-28T12:00:00.276Z,1
2022-07-28T12:01:00.112Z,1
2022-07-28T12:02:00.808Z,1
2022-07-28T12:03:00.596Z,1
2022-07-28T12:04:00.712Z,1
2022-07-28T12:05:00.770Z,1
2022-07-28T12:06:00.812Z,1
2022-07-28T12:07:00.742Z,1
2022-07-28T12:08:00.917Z,1
2022-07-28T12:09:01.006Z,1
2022-07-28T12:10:00.727Z,1
2022-07-28T12:11:00.402Z,1
2022-07-28T12:12:00.134Z,1
2022-07-28T12:12:59.881Z,1
2022-07-28T12:13:59.657Z,1
2022-07-28T12:15:06.680Z,1
2022-07-28T12:16:01.449Z,1
2022-07-28T12:17:01.125Z,1
2022-07-28T12:18:00.910Z,1
2022-07-28T12:19:01.726Z,1
2022-07-28T12:20:00.602Z,1
2022-07-28T12:21:04.920Z,1
2022-07-28T12:22:03.231Z,1
2022-07-28T12:23:01.763Z,1
2022-07-28T12:24:00.946Z,1
2022-07-28T12:25:02.857Z,1
2022-07-28T12:26:00.749Z,1
2022-07-28T12:27:00.694Z,1
2022-07-28T12:28:02.135Z,1
2022-07-28T12:29:01.243Z,1
2022-07-28T12:30:00.968Z,1
2022-07-28T12:31:00.758Z,1
2022-07-28T12:32:00.609Z,1
2022-07-28T12:33:00.385Z,1
2022-07-28T12:34:00.106Z,1
2022-07-28T12:34:59.748Z,1
2022-07-28T12:36:02.141Z,1
2022-07-28T12:37:01.222Z,1
2022-07-28T12:38:01.053Z,1
2022-07-28T12:39:00.874Z,1
2022-07-28T12:40:00.633Z,1
2022-07-28T12:41:00.331Z,1
2022-07-28T12:42:00.022Z,1
2022-07-28T12:42:59.698Z,1
2022-07-28T12:44:01.415Z,1
2022-07-28T12:45:02.116Z,1
2022-07-28T12:46:00.737Z,1
2022-07-28T12:47:00.466Z,1
2022-07-28T12:48:00.989Z,1
2022-07-28T12:49:00.754Z,1
2022-07-28T12:50:04.989Z,1
2022-07-28T12:51:02.701Z,1
2022-07-28T12:52:02.259Z,1
2022-07-28T12:53:02.267Z,1
2022-07-28T12:54:00.619Z,1
2022-07-28T12:55:00.316Z,1
2022-07-28T12:56:00.011Z,1
2022-07-28T12:56:59.716Z,1
2022-07-28T12:58:01.355Z,1
2022-07-28T12:59:01.022Z,1
2022-07-28T13:00:00.931Z,1
2022-07-28T13:01:00.961Z,1
2022-07-28T13:02:00.711Z,1
2022-07-28T13:03:00.448Z,1
2022-07-28T13:04:00.280Z,1
2022-07-28T13:04:59.966Z,1
2022-07-28T13:05:59.674Z,1
2022-07-28T13:07:01.436Z,1
2022-07-28T13:08:02.248Z,1
2022-07-28T13:09:02.672Z,1
2022-07-28T13:10:01.536Z,1
2022-07-28T13:11:01.239Z,1
2022-07-28T13:12:00.924Z,1
2022-07-28T13:13:00.638Z,1
2022-07-28T13:14:00.293Z,1
2022-07-28T13:15:00.067Z,1
2022-07-28T13:15:59.883Z,1
2022-07-28T13:16:59.730Z,1
2022-07-28T13:18:02.204Z,1
2022-07-28T13:19:02.724Z,1
2022-07-28T13:20:00.859Z,1
2022-07-28T13:21:00.546Z,1
2022-07-28T13:22:03.005Z,1
2022-07-28T13:23:02.100Z,1
2022-07-28T13:24:00.654Z,1
2022-07-28T13:25:00.724Z,1
2022-07-28T13:26:00.385Z,1
2022-07-28T13:27:00.126Z,1
2022-07-28T13:28:00.887Z,1
2022-07-28T13:29:00.531Z,1
2022-07-28T13:30:00.245Z,1
2022-07-28T13:31:00.059Z,1
2022-07-28T13:31:59.881Z,1
2022-07-28T13:33:01.242Z,1
2022-07-28T13:34:00.980Z,1
2022-07-28T13:35:00.996Z,1
2022-07-28T13:36:02.435Z,1
2022-07-28T13:37:01.216Z,1
2022-07-28T13:38:04.864Z,1
2022-07-28T13:39:00.914Z,1
2022-07-28T13:40:00.724Z,1
2022-07-28T13:41:00.418Z,1
2022-07-28T13:42:00.121Z,1
2022-07-28T13:43:06.062Z,1
2022-07-28T13:44:01.367Z,1
2022-07-28T13:45:01.728Z,1
2022-07-28T13:46:01.535Z,1
2022-07-28T13:47:02.766Z,1
2022-07-28T13:48:08.766Z,1
2022-07-28T13:49:00.769Z,1
2022-07-28T13:50:00.606Z,1
2022-07-28T13:51:00.389Z,1
2022-07-28T13:52:00.424Z,1
2022-07-28T13:53:08.886Z,1
2022-07-28T13:54:02.291Z,1
2022-07-28T13:55:04.246Z,1
2022-07-28T13:56:00.943Z,1
2022-07-28T13:57:00.841Z,1
2022-07-28T13:58:12.288Z,1
2022-07-28T13:59:02.296Z,1
2022-07-28T14:00:01.148Z,1
2022-07-28T14:01:01.582Z,1
2022-07-28T14:02:02.460Z,1
2022-07-28T14:03:00.847Z,1
2022-07-28T14:04:01.194Z,1
2022-07-28T14:05:01.392Z,1
2022-07-28T14:06:00.604Z,1
2022-07-28T14:07:00.266Z,1
2022-07-28T14:08:00.098Z,1
2022-07-28T14:08:59.878Z,1
2022-07-28T14:10:01.174Z,1
2022-07-28T14:11:00.908Z,1
2022-07-28T14:12:00.990Z,1
2022-07-28T14:13:02.897Z,1
2022-07-28T14:14:00.943Z,1
2022-07-28T14:15:00.675Z,1
2022-07-28T14:16:02.141Z,1
2022-07-28T14:17:10.296Z,1
2022-07-28T14:18:02.609Z,1
2022-07-28T14:19:00.553Z,1
2022-07-28T14:20:00.190Z,1
2022-07-28T14:20:59.957Z,1
2022-07-28T14:21:59.588Z,1
2022-07-28T14:23:01.529Z,1
2022-07-28T14:24:01.214Z,1
2022-07-28T14:25:00.877Z,1
2022-07-28T14:26:25.200Z,1
2022-07-28T14:27:01.438Z,1
2022-07-28T14:28:00.939Z,1
2022-07-28T14:29:00.553Z,1
2022-07-28T14:30:03.248Z,1
2022-07-28T14:31:02.585Z,1
2022-07-28T14:32:01.246Z,1
2022-07-28T14:33:00.955Z,1
2022-07-28T14:34:00.982Z,1
2022-07-28T14:35:02.084Z,1
2022-07-28T14:36:00.673Z,1
2022-07-28T14:37:00.306Z,1
2022-07-28T14:38:51.099Z,1